Albion, New Jersey
Current Conditions -  °F | °C
As of 5:54 PM on Thursday 18 Dec 2014 (Local Time) from KVAY Reporting Station
Overcast Overcast  
Wind Chill: 31°   Ceiling: 4000
Heat Index: 37°   Visibility: 10mi
Dew Point: 24°   Wind: 8mph
Humidity: 59%   Direction: 290°WNW
Pressure: 30.02"   Gusts: NA
Location:  39.7587°N, 74.9349°W
Report Text: KVAY 182254Z AUTO 29007KT 10SM OVC040 03/M04 A3002 RMK AO2 SLP165 T00281044
Loading
Personal Weather Stations






























Interactive Weather Map New forecast layout! Learn more

10-Day Weather Forecast

Advertisements
Track Severe Weather on mobile